Joseph Barnes

Scout - Manchester United
14 Okt 2027
Donnerstag
Verarbeitung

Persönlichkeit

Anpassungsfähigkeit (3) Ehrgeiz (14) Kontroverse (12) Loyalität (17) Druck (3) Professionalität (5) Fairness (10) Temperament (11)

Profil

Trainerstil Demokratisch
Lizenz Kontinentale C
Entschlossenheit 14
Menschenführung 11
Motivation 9
Disziplin 16
Arbeitszufriedenheit
100%
Ermüdung
0%
Rolle Scout
Gehalt 76.0K p/W
Vertrag 14.03.2030

Leistung

Verhalten Gut
Trainingseffektivität
50%
Spielerentwicklung
70%
Verletzungsprävention
55%
Taktische Umsetzung
50%

Letzte Ereignisse

Nahm an einer Scouting-Besprechung teil 7T her
Nahm an einer Scouting-Besprechung teil 7T her
Spiel beobachtet 7T her
Spiel beobachtet 7T her
Nahm an einer Scouting-Besprechung teil 14T her
Nahm an einer Scouting-Besprechung teil 14T her
Spiel beobachtet 14T her
Spiel beobachtet 14T her

Aktuell beobachtet

83
Spieler Verein Status Fähigkeit Vertrauen Beobachtet Zuletzt beobachtet Letzte Stimme
Ricardo Pepi Chelsea Aktiv 145 / 153 40% 3 23.08.2027 -
Álvaro Rodríguez Bournemouth Aktiv 137 / 152 40% 1 23.08.2027 -
Tommaso Baldanzi AS Roma Verhandlung 145 / 153 40% 1 23.08.2027 -
Sven Botman Newcastle United Verloren 163 / 171 40% 11 16.08.2027 -
Wesley Fofana Chelsea Verloren 169 / 163 40% 14 16.08.2027 -
Pierre Kalulu Juventus Verloren 161 / 161 40% 11 16.08.2027 -
Yeremy Pino Crystal Palace Aktiv 155 / 160 40% 3 09.08.2027 -
Francisco Conceição Juventus Aktiv 164 / 157 40% 3 09.08.2027 Beobachten
Kwadwo Baah Watford Aktiv 135 / 123 40% 1 09.08.2027 -
Jack McGlynn Stoke City Aktiv 135 / 138 40% 1 21.07.2027 -
Kenan Yıldız Juventus Aktiv 164 / 159 40% 10 20.07.2027 -
Toby Collyer West Bromwich Albion Aktiv 134 / 130 40% 1 20.07.2027 -
Isaac Price West Bromwich Albion Aktiv 132 / 135 40% 2 19.07.2027 -
Morgan Rogers Chelsea Aktiv 165 / 161 40% 4 14.07.2027 -
Juanlu Bournemouth Aktiv 151 / 146 40% 1 14.07.2027 -
Mohamed-Ali Cho Hull City Aktiv 141 / 136 40% 3 13.07.2027 -
Yankuba Minteh Brighton Abgelehnt 155 / 161 40% 1 13.07.2027 Mehr Infos nötig
Matías Soulé AS Roma Aktiv 161 / 165 40% 1 12.07.2027 -
Tom Fellows Southampton Aktiv 132 / 126 40% 1 05.07.2027 -
Yehor Yarmoliuk Brentford Aktiv 152 / 157 40% 1 05.07.2027 -
Manu Koné AS Roma Verloren 165 / 170 40% 12 22.06.2027 -
Mohammed Kudus Tottenham Aktiv 163 / 157 40% 1 22.06.2027 -
Nico González Newcastle United Aktiv 164 / 162 40% 29 14.06.2027 -
Boubacar Kamara Aston Villa Aktiv 164 / 155 40% 12 14.06.2027 -
Malick Fofana Sunderland Verloren 144 / 138 90% 1 02.06.2027 -
Gabriel Arsenal Aktiv 172 / 171 40% 19 30.05.2027 -
Adrien Truffert Bournemouth Aktiv 151 / 149 40% 4 30.05.2027 -
Levi Colwill Chelsea Aktiv 159 / 163 40% 24 29.05.2027 -
Tyler Adams Bournemouth Aktiv 155 / 159 40% 6 28.05.2027 -
William Saliba Arsenal Aktiv 178 / 169 40% 12 27.05.2027 -
Jan Paul van Hecke Tottenham Aktiv 155 / 147 40% 11 27.05.2027 -
Amadou Onana Aston Villa Aktiv 158 / 156 40% 6 27.05.2027 -
Khéphren Thuram Aston Villa Aktiv 156 / 161 40% 1 27.05.2027 -
Tino Livramento Newcastle United Aktiv 155 / 168 40% 3 25.05.2027 -
Gonzalo Fulham Aktiv 143 / 139 40% 1 25.05.2027 -
Jurriën Timber Arsenal Aktiv 163 / 153 40% 12 24.05.2027 -
Jakub Kiwior Everton Aktiv 157 / 167 40% 1 24.05.2027 -
Felipe Augusto Zenit Aktiv 134 / 139 40% 5 21.05.2027 -
Hector Ramirez Newcastle United Aktiv 156 / 151 40% 23 20.05.2027 -
Moisés Caicedo Chelsea Aktiv 173 / 175 40% 5 20.05.2027 -
Benjamin White Arsenal Aktiv 158 / 167 40% 11 19.05.2027 -
Sandro Tonali Tottenham Aktiv 173 / 162 40% 13 16.05.2027 -
Xaver Schlager Nottingham Forest Aktiv 152 / 144 40% 5 12.05.2027 -
Pedro Porro Tottenham Aktiv 151 / 140 40% 1 12.05.2027 -
Francesco Pio Esposito Inter Aktiv 143 / 143 40% 4 10.05.2027 -
Quinten Timber Crystal Palace Aktiv 152 / 154 40% 7 08.05.2027 -
Curtis Jones Inter Aktiv 157 / 152 40% 7 04.05.2027 -
Stefanos Tzimas Brighton Aktiv 136 / 144 40% 2 02.05.2027 -
Jarrad Branthwaite Everton Aktiv 151 / 148 40% 13 30.04.2027 -
Franculino Crystal Palace Aktiv 137 / 150 40% 2 26.04.2027 -
Assane Diao Lazio Aktiv 148 / 142 40% 5 26.04.2027 -
Declan Rice Arsenal Aktiv 183 / 180 40% 3 25.04.2027 -
Leon Goretzka Aston Villa Aktiv 155 / 160 40% 13 23.04.2027 -
Rayan Bournemouth Aktiv 133 / 145 40% 3 19.04.2027 -
Bruno Guimarães Arsenal Aktiv 170 / 167 40% 7 15.04.2027 -
Matías Fernández-Pardo Newcastle United Aktiv 141 / 134 40% 2 12.04.2027 -
Pablo Felipe West Ham United Aktiv 132 / 146 40% 1 11.04.2027 -
Konstantin Tyukavin Inter Aktiv 135 / 129 40% 1 11.04.2027 -
Yoan Bonny Inter Aktiv 146 / 146 40% 2 10.04.2027 -
Ousmane Diomande Nottingham Forest Aktiv 153 / 147 40% 13 06.04.2027 -
Exequiel Zeballos Fiorentina Aktiv 133 / 136 40% 2 30.03.2027 -
Santiago Castro AS Roma Aktiv 146 / 142 40% 1 23.03.2027 -
Ian Maatsen Aston Villa Aktiv 149 / 149 40% 8 18.03.2027 -
Manfred Ugalde Spartak Moscow Aktiv 131 / 126 40% 1 12.03.2027 -
Antonee Robinson Fulham Aktiv 152 / 152 40% 1 10.03.2027 -
Ruben van Bommel Ferencvaros Aktiv 132 / 131 40% 1 07.03.2027 -
Reece James Chelsea Aktiv 175 / 163 40% 7 05.03.2027 -
Andrew Robertson Tottenham Aktiv 151 / 150 40% 2 17.02.2027 -
Micky van de Ven Tottenham Aktiv 157 / 157 40% 1 05.02.2027 -
Warren Zaïre-Emery Paris Saint-Germain Aktiv 155 / 172 40% 6 25.12.2026 -
Murillo Nottingham Forest Aktiv 153 / 161 40% 14 24.12.2026 -
Dušan Vlahović Juventus Aktiv 162 / 154 40% 5 22.12.2026 Beobachten
Bremer Juventus Aktiv 165 / 169 40% 1 11.12.2026 -
Nicolò Rovella Lazio Aktiv 149 / 142 40% 5 24.11.2026 -
Federico Dimarco Inter Aktiv 164 / 167 40% 1 23.11.2026 -
Mikel Merino Arsenal Aktiv 157 / 153 40% 2 22.11.2026 -
Mark O'Mahony Brighton Aktiv 98 / 103 30% 1 / 1m 28.10.2026 -
Prosper Peter Angers SCO Aktiv 113 / 118 30% 1 / 1m 28.10.2026 -
Luke Harris Fulham Aktiv 115 / 120 30% 1 / 1m 28.10.2026 -
Fabián Paris Saint-Germain Aktiv 166 / 174 40% 1 23.10.2026 -
Gabriel Martinelli Brighton Aktiv 162 / 160 40% 1 20.10.2026 -
Stanislav Lobotka Galatasaray Aktiv 158 / 172 40% 2 20.09.2026 -
Nathan Paul-Lavaly Bromley Aktiv 62 / 67 30% 1 / 1m 16.09.2026 -